createdAt,value
2019-03-15T00:01:44.015Z,2.80
2019-03-15T00:04:11.368Z,2.03
2019-03-15T00:06:38.839Z,2.80
2019-03-15T00:09:09.137Z,2.47
2019-03-15T00:11:36.400Z,2.20
2019-03-15T00:14:04.671Z,2.23
2019-03-15T00:16:32.103Z,2.20
2019-03-15T00:18:59.371Z,3.57
2019-03-15T00:21:26.572Z,2.80
2019-03-15T00:23:53.779Z,2.53
2019-03-15T00:26:21.249Z,1.70
2019-03-15T00:28:51.184Z,2.50
2019-03-15T00:31:19.231Z,2.77
2019-03-15T00:33:46.664Z,2.80
2019-03-15T00:36:14.155Z,2.13
2019-03-15T00:38:41.459Z,2.07
2019-03-15T00:41:08.790Z,2.13
2019-03-15T00:43:36.055Z,2.33
2019-03-15T00:46:03.533Z,2.93
2019-03-15T00:48:30.944Z,2.47
2019-03-15T00:50:58.344Z,2.43
2019-03-15T00:53:25.614Z,2.30
2019-03-15T00:55:52.823Z,3.10
2019-03-15T00:58:20.056Z,1.90
2019-03-15T01:00:47.290Z,2.93
2019-03-15T01:03:14.491Z,2.10
2019-03-15T01:05:42.061Z,2.40
2019-03-15T01:08:09.254Z,2.03
2019-03-15T01:10:36.495Z,2.63
2019-03-15T01:13:03.703Z,2.40
2019-03-15T01:15:30.959Z,2.97
2019-03-15T01:17:58.147Z,2.80
2019-03-15T01:20:25.475Z,1.97
2019-03-15T01:22:52.721Z,2.43
2019-03-15T01:25:19.973Z,2.50
2019-03-15T01:27:47.274Z,2.53
2019-03-15T01:30:14.303Z,1.90
2019-03-15T01:32:41.626Z,2.07
2019-03-15T01:35:08.950Z,2.30
2019-03-15T01:37:36.167Z,2.17
2019-03-15T01:40:03.643Z,1.97
2019-03-15T01:42:30.806Z,2.30
2019-03-15T01:44:58.022Z,2.10
2019-03-15T01:47:25.207Z,2.03
2019-03-15T01:49:52.551Z,1.90
2019-03-15T01:52:19.740Z,1.93
2019-03-15T01:54:46.927Z,2.03
2019-03-15T01:57:14.211Z,2.37
2019-03-15T01:59:41.445Z,2.30
2019-03-15T02:02:08.699Z,2.40
2019-03-15T02:04:35.927Z,2.07
2019-03-15T02:07:03.103Z,1.90
2019-03-15T02:09:30.290Z,2.40
2019-03-15T02:11:57.648Z,1.90
2019-03-15T02:14:24.827Z,1.93
2019-03-15T02:16:52.057Z,2.00
2019-03-15T02:19:19.307Z,1.80
2019-03-15T02:21:46.521Z,1.87
2019-03-15T02:24:13.754Z,1.93
2019-03-15T02:26:40.973Z,1.93
2019-03-15T02:29:08.178Z,2.03
2019-03-15T02:31:35.466Z,1.77
2019-03-15T02:34:02.705Z,2.13
2019-03-15T02:36:29.966Z,1.90
2019-03-15T02:38:57.252Z,1.70
2019-03-15T02:41:24.516Z,1.80
2019-03-15T02:43:51.847Z,2.40
2019-03-15T02:46:19.190Z,2.50
2019-03-15T02:48:46.366Z,1.83
2019-03-15T02:51:13.590Z,1.97
2019-03-15T02:53:40.823Z,1.93
2019-03-15T02:56:08.190Z,1.50
2019-03-15T02:58:35.409Z,1.90
2019-03-15T03:01:02.637Z,2.03
2019-03-15T03:03:29.849Z,1.70
2019-03-15T03:05:57.093Z,1.60
2019-03-15T03:08:24.347Z,2.03
2019-03-15T03:10:51.857Z,2.47
2019-03-15T03:13:19.167Z,1.53
2019-03-15T03:15:46.418Z,1.50
2019-03-15T03:18:13.644Z,2.30
2019-03-15T03:20:40.809Z,1.77
2019-03-15T03:23:08.148Z,1.67
2019-03-15T03:25:35.391Z,1.97
2019-03-15T03:28:02.651Z,1.80
2019-03-15T03:30:29.912Z,1.50
2019-03-15T03:32:57.173Z,1.93
2019-03-15T03:35:24.397Z,1.50
2019-03-15T03:37:51.596Z,2.10
2019-03-15T03:40:20.589Z,1.80
2019-03-15T03:42:47.983Z,2.23
2019-03-15T03:45:15.187Z,1.93
2019-03-15T03:47:43.404Z,2.10
2019-03-15T03:50:10.829Z,1.70
2019-03-15T03:52:41.485Z,1.97
2019-03-15T03:55:07.169Z,1.90
2019-03-15T03:57:34.409Z,1.80
2019-03-15T04:00:01.587Z,2.20
2019-03-15T04:02:28.971Z,2.00
2019-03-15T04:04:56.305Z,2.17
2019-03-15T04:07:25.248Z,2.03
2019-03-15T04:09:52.782Z,2.03
2019-03-15T04:12:20.213Z,2.20
2019-03-15T04:14:47.448Z,1.93
2019-03-15T04:17:19.883Z,2.20
2019-03-15T04:19:47.530Z,1.87
2019-03-15T04:22:14.806Z,1.63
2019-03-15T04:24:42.098Z,2.10
2019-03-15T04:27:09.317Z,2.00
2019-03-15T04:29:36.673Z,2.70
2019-03-15T04:32:03.975Z,2.23
2019-03-15T04:34:31.297Z,2.07
2019-03-15T04:36:58.527Z,2.27
2019-03-15T04:39:25.825Z,2.10
2019-03-15T04:41:53.075Z,2.17
2019-03-15T04:44:22.278Z,2.70
2019-03-15T04:46:49.591Z,2.30
2019-03-15T04:49:16.844Z,2.67
2019-03-15T04:51:44.338Z,2.27
2019-03-15T04:54:11.649Z,2.63
2019-03-15T04:56:38.907Z,2.43
2019-03-15T04:59:06.295Z,2.70
2019-03-15T05:01:33.560Z,2.73
2019-03-15T05:04:00.807Z,2.30
2019-03-15T05:06:27.981Z,1.97
2019-03-15T05:08:55.321Z,2.43
2019-03-15T05:11:22.500Z,2.73
2019-03-15T05:13:49.678Z,2.97
2019-03-15T05:16:17.042Z,2.87
2019-03-15T05:18:44.258Z,2.50
2019-03-15T05:21:11.438Z,3.30
2019-03-15T05:23:38.664Z,2.73
2019-03-15T05:26:05.929Z,2.60
2019-03-15T05:28:33.197Z,2.43
2019-03-15T05:31:00.430Z,2.37
2019-03-15T05:33:31.162Z,2.93
2019-03-15T05:35:58.835Z,3.23
2019-03-15T05:38:26.161Z,2.73
2019-03-15T05:40:53.489Z,2.97
2019-03-15T05:43:20.690Z,2.43
2019-03-15T05:45:48.044Z,2.87
2019-03-15T05:48:15.217Z,2.20
2019-03-15T05:50:42.409Z,2.60
2019-03-15T05:53:09.606Z,2.23
2019-03-15T05:55:36.805Z,2.27
2019-03-15T05:58:04.056Z,2.63
2019-03-15T06:00:31.221Z,3.27
2019-03-15T06:02:58.596Z,2.50
2019-03-15T06:05:25.795Z,2.80
2019-03-15T06:07:52.952Z,2.93
2019-03-15T06:10:20.195Z,2.30
2019-03-15T06:12:47.388Z,2.13
2019-03-15T06:15:14.731Z,3.70
2019-03-15T06:17:42.065Z,2.23
2019-03-15T06:20:09.389Z,2.50
2019-03-15T06:22:37.916Z,2.40
2019-03-15T06:25:05.228Z,3.40
2019-03-15T06:27:32.399Z,3.07
2019-03-15T06:29:59.613Z,2.90
2019-03-15T06:32:26.837Z,2.70
2019-03-15T06:34:54.005Z,2.57
2019-03-15T06:37:21.233Z,3.03
2019-03-15T06:39:48.491Z,2.60
2019-03-15T06:42:15.686Z,2.23
2019-03-15T06:44:42.889Z,3.17
2019-03-15T06:47:10.090Z,2.90
2019-03-15T06:49:37.306Z,2.70
2019-03-15T06:52:04.521Z,2.43
2019-03-15T06:54:31.732Z,3.30
2019-03-15T06:56:59.109Z,2.10
2019-03-15T06:59:26.364Z,3.37
2019-03-15T07:01:53.599Z,3.00
2019-03-15T07:04:20.827Z,2.90
2019-03-15T07:06:48.041Z,2.57
2019-03-15T07:09:15.219Z,3.10
2019-03-15T07:11:42.427Z,3.27
2019-03-15T07:14:09.656Z,3.97
2019-03-15T07:16:38.245Z,3.90
2019-03-15T07:19:05.723Z,3.20
2019-03-15T07:21:32.912Z,2.53
2019-03-15T07:24:00.115Z,4.17
2019-03-15T07:26:27.392Z,3.97
2019-03-15T07:28:54.717Z,3.53
2019-03-15T07:31:21.918Z,3.23
2019-03-15T07:33:49.731Z,3.47
2019-03-15T07:36:17.180Z,3.43
2019-03-15T07:38:44.377Z,3.23
2019-03-15T07:41:12.154Z,2.90
2019-03-15T07:43:39.527Z,2.93
2019-03-15T07:46:06.753Z,3.40
2019-03-15T07:48:34.361Z,3.20
2019-03-15T07:51:01.617Z,2.90
2019-03-15T07:53:28.809Z,3.30
2019-03-15T07:55:56.066Z,3.40
2019-03-15T07:58:23.259Z,2.97
2019-03-15T08:00:50.429Z,3.00
2019-03-15T08:03:17.648Z,2.97
2019-03-15T08:05:44.830Z,3.27
2019-03-15T08:08:12.050Z,3.33
2019-03-15T08:10:39.373Z,2.70
2019-03-15T08:13:06.582Z,2.70
2019-03-15T08:15:33.931Z,3.37
2019-03-15T08:18:01.428Z,3.73
2019-03-15T08:20:28.603Z,4.07
2019-03-15T08:22:55.826Z,2.80
2019-03-15T08:25:23.086Z,3.67
2019-03-15T08:27:50.313Z,3.07
2019-03-15T08:30:17.543Z,3.07
2019-03-15T08:32:44.944Z,3.07
2019-03-15T08:35:12.108Z,2.30
2019-03-15T08:37:39.263Z,2.37
2019-03-15T08:40:07.402Z,3.73
2019-03-15T08:42:34.935Z,3.30
2019-03-15T08:45:02.322Z,2.70
2019-03-15T08:47:29.498Z,3.10
2019-03-15T08:49:56.770Z,3.30
2019-03-15T08:52:23.979Z,4.80
2019-03-15T08:55:04.217Z,3.30
2019-03-15T08:57:20.305Z,3.07
2019-03-15T08:59:55.545Z,2.60
2019-03-15T09:02:16.714Z,2.60
2019-03-15T09:04:44.022Z,2.87
2019-03-15T09:07:11.234Z,2.90
2019-03-15T09:09:38.615Z,3.30
2019-03-15T09:12:05.847Z,2.90
2019-03-15T09:14:33.056Z,3.20
2019-03-15T09:17:00.278Z,2.80
2019-03-15T09:19:27.457Z,3.40
2019-03-15T09:21:54.677Z,2.47
2019-03-15T09:24:21.856Z,3.57
2019-03-15T09:26:49.063Z,2.90
2019-03-15T09:29:16.257Z,3.50
2019-03-15T09:31:47.950Z,2.40
2019-03-15T09:34:12.829Z,3.63
2019-03-15T09:36:49.931Z,3.23
2019-03-15T09:39:09.182Z,2.47
2019-03-15T09:41:39.907Z,2.13
2019-03-15T09:44:05.499Z,3.70
2019-03-15T09:46:32.691Z,2.50
2019-03-15T09:49:00.024Z,2.67
2019-03-15T09:51:27.263Z,2.83
2019-03-15T09:53:54.438Z,3.70
2019-03-15T09:56:21.658Z,2.80
2019-03-15T09:58:48.878Z,2.77
2019-03-15T10:01:33.627Z,2.60
2019-03-15T10:03:45.221Z,2.63
2019-03-15T10:06:16.599Z,2.43
2019-03-15T10:08:41.515Z,2.33
2019-03-15T10:11:08.770Z,2.63
2019-03-15T10:13:36.045Z,2.97
2019-03-15T10:16:03.245Z,3.03
2019-03-15T10:18:30.495Z,2.73
2019-03-15T10:20:57.690Z,3.00
2019-03-15T10:23:24.974Z,2.30
2019-03-15T10:25:52.159Z,3.20
2019-03-15T10:28:19.392Z,3.07
2019-03-15T10:30:46.603Z,3.57
2019-03-15T10:33:13.786Z,2.40
2019-03-15T10:35:41.030Z,2.90
2019-03-15T10:38:08.222Z,2.33
2019-03-15T10:40:35.519Z,3.33
2019-03-15T10:43:02.854Z,2.47
2019-03-15T10:45:30.006Z,2.83
2019-03-15T10:47:57.163Z,2.33
2019-03-15T10:50:24.424Z,3.37
2019-03-15T10:52:53.835Z,2.30
2019-03-15T10:55:21.006Z,2.30
2019-03-15T10:57:48.238Z,2.90
2019-03-15T11:00:15.583Z,2.20
2019-03-15T11:02:42.775Z,2.50
2019-03-15T11:05:10.108Z,2.00
2019-03-15T11:07:37.414Z,2.83
2019-03-15T11:10:10.985Z,2.43
2019-03-15T11:12:38.519Z,2.70
2019-03-15T11:15:06.598Z,2.83
2019-03-15T11:17:33.837Z,3.10
2019-03-15T11:20:01.069Z,2.60
2019-03-15T11:22:28.331Z,3.13
2019-03-15T11:24:55.934Z,2.17
2019-03-15T11:27:23.240Z,2.90
2019-03-15T11:29:50.499Z,2.20
2019-03-15T11:32:17.767Z,2.80
2019-03-15T11:34:44.988Z,2.93
2019-03-15T11:37:12.387Z,2.60
2019-03-15T11:39:39.659Z,2.67
2019-03-15T11:42:06.906Z,2.30
2019-03-15T11:44:34.146Z,2.23
2019-03-15T11:47:01.532Z,2.57
2019-03-15T11:49:28.823Z,2.60
2019-03-15T11:51:56.100Z,2.00
2019-03-15T11:54:23.396Z,2.57
2019-03-15T11:56:51.008Z,2.60
2019-03-15T11:59:18.439Z,2.57
2019-03-15T12:01:45.697Z,2.50
2019-03-15T12:04:12.878Z,2.87
2019-03-15T12:06:40.107Z,1.80
2019-03-15T12:09:07.951Z,1.87
2019-03-15T12:11:36.392Z,2.50
2019-03-15T12:14:03.653Z,2.30
2019-03-15T12:16:30.915Z,2.20
2019-03-15T12:18:58.209Z,2.07
2019-03-15T12:21:25.440Z,2.23
2019-03-15T12:23:52.650Z,1.73
2019-03-15T12:26:40.613Z,2.03
2019-03-15T12:29:06.297Z,2.17
2019-03-15T12:31:34.739Z,1.80
2019-03-15T12:34:01.978Z,2.30
2019-03-15T12:36:29.380Z,1.60
2019-03-15T12:38:58.440Z,2.43
2019-03-15T12:41:25.693Z,2.53
2019-03-15T12:43:53.045Z,2.00
2019-03-15T12:46:20.275Z,1.60
2019-03-15T12:48:49.010Z,1.83
2019-03-15T12:51:16.366Z,1.43
2019-03-15T12:53:44.993Z,1.87
2019-03-15T12:56:12.260Z,2.10
2019-03-15T12:58:39.456Z,2.33
2019-03-15T13:01:06.652Z,2.13
2019-03-15T13:03:33.923Z,2.07
2019-03-15T13:06:01.227Z,2.30
2019-03-15T13:08:28.511Z,3.47
2019-03-15T13:10:55.737Z,2.70
2019-03-15T13:13:22.992Z,3.37
2019-03-15T13:15:50.175Z,3.10
2019-03-15T13:18:17.359Z,5.20
2019-03-15T13:20:44.558Z,3.20
2019-03-15T13:23:11.844Z,2.80
2019-03-15T13:25:38.974Z,3.53
2019-03-15T13:28:06.225Z,3.93
2019-03-15T13:30:33.420Z,3.83
2019-03-15T13:33:00.655Z,3.30
2019-03-15T13:35:27.831Z,3.77
2019-03-15T13:37:55.171Z,3.50
2019-03-15T13:40:22.394Z,3.23
2019-03-15T13:42:49.612Z,3.73
2019-03-15T13:45:16.791Z,3.53
2019-03-15T13:47:44.012Z,4.10
2019-03-15T13:50:11.356Z,3.37
2019-03-15T13:52:38.523Z,3.40
2019-03-15T13:55:05.882Z,2.90
2019-03-15T13:57:33.062Z,3.47
2019-03-15T14:00:00.416Z,3.10
2019-03-15T14:02:27.600Z,3.87
2019-03-15T14:04:54.796Z,3.40
2019-03-15T14:07:22.003Z,4.00
2019-03-15T14:09:49.222Z,2.60
2019-03-15T14:12:16.521Z,2.87
2019-03-15T14:14:43.882Z,3.47
2019-03-15T14:17:11.091Z,2.97
2019-03-15T14:19:38.310Z,3.50
2019-03-15T14:22:06.330Z,3.23
2019-03-15T14:24:33.831Z,3.37
2019-03-15T14:27:01.024Z,3.00
2019-03-15T14:29:28.238Z,3.67
2019-03-15T14:31:55.497Z,3.37
2019-03-15T14:34:22.707Z,2.97
2019-03-15T14:36:50.103Z,3.50
2019-03-15T14:39:17.606Z,3.17
2019-03-15T14:41:44.772Z,3.30
2019-03-15T14:44:12.237Z,3.10
2019-03-15T14:46:39.478Z,3.03
2019-03-15T14:49:06.663Z,3.80
2019-03-15T14:51:33.971Z,3.97
2019-03-15T14:54:01.148Z,3.60
2019-03-15T14:56:28.349Z,3.37
2019-03-15T14:58:55.585Z,3.57
2019-03-15T15:01:22.814Z,3.23
2019-03-15T15:03:50.047Z,4.10
2019-03-15T15:06:17.251Z,3.50
2019-03-15T15:08:44.431Z,3.53
2019-03-15T15:11:11.662Z,3.53
2019-03-15T15:13:38.833Z,3.17
2019-03-15T15:16:06.031Z,3.50
2019-03-15T15:18:33.252Z,3.30
2019-03-15T15:21:00.472Z,3.53
2019-03-15T15:23:27.680Z,3.83
2019-03-15T15:25:54.892Z,3.03
2019-03-15T15:28:22.086Z,3.53
2019-03-15T15:30:49.318Z,4.23
2019-03-15T15:33:16.510Z,2.60
2019-03-15T15:35:50.941Z,3.00
2019-03-15T15:38:18.162Z,3.60
2019-03-15T15:40:45.453Z,3.20
2019-03-15T15:43:12.700Z,2.80
2019-03-15T15:45:39.845Z,3.30
2019-03-15T15:48:07.046Z,3.00
2019-03-15T15:50:34.275Z,3.10
2019-03-15T15:53:01.429Z,3.93
2019-03-15T15:55:28.643Z,3.10
2019-03-15T15:57:55.946Z,3.57
2019-03-15T16:00:23.169Z,3.13
2019-03-15T16:02:50.365Z,3.73
2019-03-15T16:05:17.599Z,3.63
2019-03-15T16:07:44.761Z,3.60
2019-03-15T16:10:11.999Z,3.27
2019-03-15T16:12:39.240Z,2.90
2019-03-15T16:15:07.013Z,3.73
2019-03-15T16:17:34.263Z,3.67
2019-03-15T16:20:01.422Z,3.30
2019-03-15T16:22:28.679Z,3.10
2019-03-15T16:24:55.836Z,3.30
2019-03-15T16:27:23.069Z,3.10
2019-03-15T16:29:50.292Z,3.80
2019-03-15T16:32:17.639Z,3.07
2019-03-15T16:34:44.799Z,2.67
2019-03-15T16:37:11.986Z,3.30
2019-03-15T16:39:39.207Z,3.03
2019-03-15T16:42:06.389Z,2.70
2019-03-15T16:44:33.638Z,2.97
2019-03-15T16:47:00.800Z,3.70
2019-03-15T16:49:27.984Z,3.30
2019-03-15T16:51:55.193Z,2.90
2019-03-15T16:54:22.364Z,3.23
2019-03-15T16:56:49.539Z,3.67
2019-03-15T16:59:16.743Z,3.30
2019-03-15T17:01:43.938Z,3.73
2019-03-15T17:04:11.158Z,3.57
2019-03-15T17:06:38.395Z,2.90
2019-03-15T17:09:06.397Z,3.90
2019-03-15T17:11:33.634Z,3.20
2019-03-15T17:14:00.940Z,2.83
2019-03-15T17:16:28.176Z,3.20
2019-03-15T17:18:55.378Z,3.97
2019-03-15T17:21:22.744Z,3.30
2019-03-15T17:23:49.958Z,3.07
2019-03-15T17:26:17.105Z,2.77
2019-03-15T17:28:44.414Z,3.10
2019-03-15T17:31:13.503Z,3.97
2019-03-15T17:33:40.828Z,3.90
2019-03-15T17:36:08.045Z,3.20
2019-03-15T17:38:35.187Z,2.87
2019-03-15T17:41:02.418Z,3.10
2019-03-15T17:43:29.646Z,3.57
2019-03-15T17:45:56.855Z,4.13
2019-03-15T17:48:24.182Z,2.83
2019-03-15T17:50:51.371Z,3.30
2019-03-15T17:53:18.550Z,4.40
2019-03-15T17:55:45.977Z,3.60
2019-03-15T17:58:13.185Z,3.27
2019-03-15T18:00:42.460Z,3.27
2019-03-15T18:03:20.604Z,3.70
2019-03-15T18:05:38.822Z,3.47
2019-03-15T18:08:06.017Z,3.97
2019-03-15T18:10:33.272Z,3.37
2019-03-15T18:13:00.526Z,3.80
2019-03-15T18:15:27.708Z,3.63
2019-03-15T18:17:54.914Z,4.10
2019-03-15T18:20:22.124Z,2.67
2019-03-15T18:22:49.315Z,3.30
2019-03-15T18:25:16.483Z,3.20
2019-03-15T18:27:43.697Z,3.57
2019-03-15T18:30:11.074Z,3.33
2019-03-15T18:32:38.250Z,3.90
2019-03-15T18:35:05.469Z,3.40
2019-03-15T18:37:32.679Z,3.27
2019-03-15T18:39:59.970Z,3.53
2019-03-15T18:42:27.191Z,3.60
2019-03-15T18:44:54.465Z,3.53
2019-03-15T18:47:21.617Z,3.20
2019-03-15T18:49:48.833Z,3.27
2019-03-15T18:52:16.036Z,4.30
2019-03-15T18:54:43.279Z,3.23
2019-03-15T18:57:10.466Z,2.90
2019-03-15T18:59:40.128Z,3.87
2019-03-15T19:02:06.930Z,3.20
2019-03-15T19:04:34.138Z,3.30
2019-03-15T19:07:01.336Z,3.90
2019-03-15T19:09:28.513Z,3.37
2019-03-15T19:11:55.742Z,4.00
2019-03-15T19:14:22.949Z,3.40
2019-03-15T19:16:50.167Z,3.20
2019-03-15T19:19:17.362Z,3.67
2019-03-15T19:21:44.585Z,3.40
2019-03-15T19:24:11.808Z,3.50
2019-03-15T19:26:39.126Z,4.23
2019-03-15T19:29:06.293Z,3.90
2019-03-15T19:31:33.498Z,3.50
2019-03-15T19:34:00.727Z,4.03
2019-03-15T19:36:27.897Z,3.93
2019-03-15T19:38:55.166Z,4.53
2019-03-15T19:41:22.383Z,4.20
2019-03-15T19:43:49.603Z,3.23
2019-03-15T19:46:16.791Z,4.20
2019-03-15T19:48:44.038Z,3.60
2019-03-15T19:51:11.234Z,3.80
2019-03-15T19:53:38.458Z,3.97
2019-03-15T19:56:05.716Z,2.90
2019-03-15T19:58:32.914Z,4.10
2019-03-15T20:01:00.117Z,3.93
2019-03-15T20:03:27.388Z,3.47
2019-03-15T20:05:54.590Z,3.37
2019-03-15T20:08:21.747Z,3.60
2019-03-15T20:10:48.950Z,3.87
2019-03-15T20:13:16.158Z,4.13
2019-03-15T20:15:43.362Z,3.23
2019-03-15T20:18:10.575Z,3.70
2019-03-15T20:20:37.748Z,3.60
2019-03-15T20:23:04.956Z,4.10
2019-03-15T20:25:32.172Z,3.83
2019-03-15T20:27:59.350Z,3.47
2019-03-15T20:30:27.155Z,3.87
2019-03-15T20:32:54.620Z,3.60
2019-03-15T20:35:21.817Z,3.90
2019-03-15T20:37:49.016Z,3.60
2019-03-15T20:40:16.245Z,3.57
2019-03-15T20:42:43.441Z,4.37
2019-03-15T20:45:11.883Z,3.63
2019-03-15T20:47:39.081Z,3.67
2019-03-15T20:50:06.963Z,4.37
2019-03-15T20:52:34.176Z,3.77
2019-03-15T20:55:01.414Z,4.33
2019-03-15T20:57:28.679Z,3.70
2019-03-15T20:59:55.912Z,3.60
2019-03-15T21:02:23.071Z,3.40
2019-03-15T21:04:50.292Z,3.77
2019-03-15T21:07:17.512Z,2.93
2019-03-15T21:09:44.725Z,3.17
2019-03-15T21:12:11.991Z,3.53
2019-03-15T21:14:39.235Z,3.50
2019-03-15T21:17:06.423Z,3.53
2019-03-15T21:19:33.696Z,3.40
2019-03-15T21:22:00.922Z,3.50
2019-03-15T21:24:28.116Z,3.17
2019-03-15T21:26:55.266Z,2.73
2019-03-15T21:29:22.491Z,2.97
2019-03-15T21:31:49.690Z,3.30
2019-03-15T21:34:16.928Z,3.53
2019-03-15T21:36:44.147Z,3.33
2019-03-15T21:39:11.395Z,3.43
2019-03-15T21:41:38.687Z,3.80
2019-03-15T21:44:05.937Z,3.90
2019-03-15T21:46:33.190Z,3.57
2019-03-15T21:49:00.441Z,3.73
2019-03-15T21:51:27.639Z,3.20
2019-03-15T21:53:54.870Z,4.10
2019-03-15T21:56:22.120Z,3.90
2019-03-15T21:58:49.332Z,3.60
2019-03-15T22:01:16.584Z,2.90
2019-03-15T22:03:43.760Z,3.23
2019-03-15T22:06:11.032Z,3.10
2019-03-15T22:08:38.252Z,3.70
2019-03-15T22:11:05.414Z,3.27
2019-03-15T22:13:32.815Z,3.00
2019-03-15T22:15:59.991Z,3.40
2019-03-15T22:18:27.186Z,3.80
2019-03-15T22:20:54.387Z,3.30
2019-03-15T22:23:21.591Z,3.30
2019-03-15T22:25:48.820Z,3.60
2019-03-15T22:28:16.015Z,3.70
2019-03-15T22:30:43.246Z,3.63
2019-03-15T22:33:10.565Z,4.40
2019-03-15T22:35:37.745Z,3.33
2019-03-15T22:38:04.900Z,3.23
2019-03-15T22:40:32.192Z,3.10
2019-03-15T22:42:59.442Z,4.00
2019-03-15T22:45:26.646Z,3.60
2019-03-15T22:47:53.830Z,3.67
2019-03-15T22:50:21.039Z,4.73
2019-03-15T22:52:48.272Z,4.40
2019-03-15T22:55:15.506Z,3.47
2019-03-15T22:57:42.762Z,3.20
2019-03-15T23:00:11.622Z,3.03
2019-03-15T23:02:39.007Z,3.87
2019-03-15T23:05:06.298Z,3.80
2019-03-15T23:07:33.533Z,4.20
2019-03-15T23:10:00.758Z,3.10
2019-03-15T23:12:27.939Z,3.60
2019-03-15T23:14:55.253Z,3.43
2019-03-15T23:17:22.463Z,4.57
2019-03-15T23:19:49.733Z,3.00
2019-03-15T23:22:16.941Z,3.67
2019-03-15T23:24:44.132Z,3.00
2019-03-15T23:27:11.579Z,3.37
2019-03-15T23:29:38.915Z,3.00
2019-03-15T23:32:06.117Z,2.80
2019-03-15T23:34:33.366Z,3.60
2019-03-15T23:37:00.562Z,4.40
2019-03-15T23:39:27.803Z,3.40
2019-03-15T23:41:55.483Z,3.33
2019-03-15T23:44:22.763Z,3.50
2019-03-15T23:46:49.976Z,2.97
2019-03-15T23:49:17.207Z,3.50
2019-03-15T23:51:44.474Z,3.10
2019-03-15T23:54:11.705Z,3.50
2019-03-15T23:56:38.900Z,3.37
2019-03-15T23:59:06.067Z,2.90
